»·PEaware :: N22CS KSNA-KSMO

N22CS :: KSNA-KSMO

FLIGHT INFORMATION

Flight Status: Arrived
Operator: Privately registered:
United States
More flights under this callsign
Pilot: David V. (27628)
Aircraft: CESSNA 172 SKYHAWK
(C172)
More flights by this aircraft type
Origin: KSNA John Wayne-Orange Co
United States
Destination: KSMO Santa Monica Mun
United States
More flights between these airports :: More routes between these airports
Route: +SLI V8 POXKU V363 BAYJY V186 DARTS
File this flight plan on PilotEdge
Remarks: +CW / i-04 rating
Altitude:
(Current/Filed)
6,000ft
Speed:
(Current/Filed)
150kts
Departed: 13-Feb-20 04:53 PM
Arrived: 13-Feb-20 05:47 PM
Distance/Time
Traveled:
35nm/0:53
Distance/Time
To Go:
Arrived

Flight Plot

Page will automatically refresh every two minutes.


Map Options




Map Legend


Flown Route
Filed Route
Departure Airport
Arrival Airport
Navaid (VOR, NDB)
Fix

Horizontal Profiles

Position Reports

Time Latitude Longitude Heading Altitude Ground
Speed
13-Feb-20 16:37 33.672446 -117.867192 208 60ft 0kts
13-Feb-20 16:38 33.672446 -117.867192 208 60ft 0kts
13-Feb-20 16:39 33.672446 -117.867192 208 60ft 0kts
13-Feb-20 16:40 33.672446 -117.867192 208 60ft 0kts
13-Feb-20 16:41 33.672446 -117.867192 208 60ft 0kts
13-Feb-20 16:42 33.672446 -117.867192 208 60ft 0kts
13-Feb-20 16:43 33.672446 -117.867192 208 60ft 0kts
13-Feb-20 16:44 33.672446 -117.867192 208 60ft 0kts
13-Feb-20 16:45 33.672446 -117.867192 208 60ft 0kts
13-Feb-20 16:46 33.672446 -117.867192 208 60ft 0kts
13-Feb-20 16:47 33.672446 -117.867192 208 60ft 0kts
13-Feb-20 16:48 33.672446 -117.867192 208 60ft 0kts
13-Feb-20 16:49 33.672442 -117.867206 269 60ft 0kts
13-Feb-20 16:51 33.677170 -117.865139 29 60ft 29kts
13-Feb-20 16:52 33.679941 -117.863632 310 60ft 0kts
13-Feb-20 16:53 33.673900 -117.868176 210 162ft 71kts
13-Feb-20 16:54 33.663262 -117.887435 240 797ft 71kts
13-Feb-20 16:55 33.654188 -117.908782 240 1378ft 72kts
13-Feb-20 16:56 33.645196 -117.930625 240 1927ft 73kts
13-Feb-20 16:57 33.630988 -117.966342 240 2726ft 75kts
13-Feb-20 16:58 33.641979 -118.003577 0 3543ft 87kts
13-Feb-20 17:04 33.672445 -117.867193 208 60ft 0kts
13-Feb-20 17:05 33.672446 -117.867192 208 60ft 0kts
13-Feb-20 17:06 33.672446 -117.867192 208 60ft 0kts
13-Feb-20 17:07 33.673854 -117.867177 8 60ft 15kts
13-Feb-20 17:08 33.679281 -117.863739 26 60ft 23kts
13-Feb-20 17:09 33.679963 -117.863657 305 60ft 0kts
13-Feb-20 17:10 33.676566 -117.866434 208 66ft 70kts
13-Feb-20 17:10 33.663642 -117.880015 240 710ft 78kts
13-Feb-20 17:12 33.652065 -117.907784 241 1664ft 80kts
13-Feb-20 17:13 33.640834 -117.935519 241 2170ft 99kts
13-Feb-20 17:13 33.636614 -117.961255 305 2631ft 106kts
13-Feb-20 17:15 33.670070 -117.955133 21 3250ft 111kts
13-Feb-20 17:15 33.694316 -117.943739 21 3667ft 111kts
13-Feb-20 17:16 33.723749 -117.929969 21 4139ft 111kts
13-Feb-20 17:17 33.753522 -117.916089 21 4580ft 112kts
13-Feb-20 17:18 33.783073 -117.902375 21 4984ft 112kts
13-Feb-20 17:19 33.812745 -117.888735 21 5359ft 112kts
13-Feb-20 17:20 33.832562 -117.863345 71 5700ft 109kts
13-Feb-20 17:21 33.842413 -117.827920 75 5909ft 117kts
13-Feb-20 17:22 33.854314 -117.790358 36 5902ft 126kts
13-Feb-20 17:23 33.888719 -117.784490 2 6012ft 124kts
13-Feb-20 17:24 33.925127 -117.784170 0 6009ft 128kts
13-Feb-20 17:25 33.960913 -117.784690 359 6010ft 128kts
13-Feb-20 17:26 33.996751 -117.785678 348 6007ft 129kts
13-Feb-20 17:27 34.016474 -117.819835 291 6014ft 126kts
13-Feb-20 17:28 34.029935 -117.859588 288 6015ft 126kts
13-Feb-20 17:29 34.042586 -117.899568 288 6015ft 126kts
13-Feb-20 17:30 34.055041 -117.939901 288 6014ft 127kts
13-Feb-20 17:31 34.067475 -117.980291 288 6013ft 127kts
13-Feb-20 17:32 34.079764 -118.020259 288 6012ft 127kts
13-Feb-20 17:33 34.092183 -118.060705 288 5983ft 128kts
13-Feb-20 17:34 34.104363 -118.100431 288 5981ft 127kts
13-Feb-20 17:35 34.116662 -118.140609 288 5981ft 127kts
13-Feb-20 17:36 34.128971 -118.180871 289 5981ft 127kts
13-Feb-20 17:37 34.141238 -118.221050 289 5981ft 127kts
13-Feb-20 17:38 34.152554 -118.262153 264 5977ft 126kts
13-Feb-20 17:39 34.133639 -118.298215 231 5629ft 141kts
13-Feb-20 17:40 34.109724 -118.337314 231 4831ft 146kts
13-Feb-20 17:41 34.088101 -118.373109 232 4179ft 92kts
13-Feb-20 17:42 34.074593 -118.396428 231 3444ft 81kts
13-Feb-20 17:43 34.055810 -118.408488 195 2430ft 78kts
13-Feb-20 17:44 34.037127 -118.419937 217 1460ft 70kts
13-Feb-20 17:45 34.025422 -118.437290 240 598ft 66kts
13-Feb-20 17:46 34.015858 -118.451311 222 139ft 28kts
13-Feb-20 17:47 34.014073 -118.452302 188 133ft 13kts
13-Feb-20 17:48 34.012546 -118.453845 255 126ft 0kts

Navigation Log

Ident Type
Flight plan parsing failed, navigation log unavailable